Time;durP1;ratioP1;P1;durP2;ratioP2;P2;SDS_P1;SDS_P2;PMS_P1;PMS_P2;Temp;Humidity;BMP_temperature;BMP_pressure;BME280_temperature;BME280_humidity;BME280_pressure;Samples;Min_cycle;Max_cycle;Signal;HPM_P1;HPM_P2
2022/12/17 13:07:26;;;;;;;4.83;3.50;;;;;;;4.30;86.96;95467.67;1795581;80;20978;-76
2022/12/17 13:09:58;;;;;;;6.23;4.37;;;;;;;4.23;87.31;95478.95;1794565;80;21507;-77
2022/12/17 13:12:45;;;;;;;6.27;4.57;;;;;;;4.21;87.32;95482.02;1795492;80;21022;-76
2022/12/17 13:15:18;;;;;;;6.77;4.93;;;;;;;4.15;87.55;95488.94;1795430;80;21055;-76
2022/12/17 13:17:55;;;;;;;7.87;5.13;;;;;;;4.03;87.69;95495.87;1795658;80;21544;-76
2022/12/17 13:20:32;;;;;;;7.47;5.00;;;;;;;3.97;87.93;95497.56;1777255;80;21544;-76
2022/12/17 13:23:16;;;;;;;6.00;4.63;;;;;;;3.91;88.24;95507.55;1795350;80;21015;-76
2022/12/17 13:25:43;;;;;;;7.37;4.73;;;;;;;3.93;88.09;95511.45;1795447;80;21508;-76
2022/12/17 13:28:29;;;;;;;6.93;4.17;;;;;;;3.92;88.22;95506.66;1795313;80;21021;-76
2022/12/17 13:31:03;;;;;;;8.60;5.63;;;;;;;3.86;88.37;95509.25;1795526;80;21515;-77
2022/12/17 13:33:47;;;;;;;9.97;6.43;;;;;;;3.78;88.66;95498.77;1793046;80;21002;-76
2022/12/17 13:36:51;;;;;;;9.13;6.30;;;;;;;3.75;88.86;95501.77;1793983;80;21023;-77
2022/12/17 13:39:46;;;;;;;10.77;6.70;;;;;;;3.74;88.92;95509.17;1795491;80;20991;-76
2022/12/17 13:42:33;;;;;;;7.27;5.30;;;;;;;3.73;88.75;95494.36;1786529;80;21071;-76
2022/12/17 13:45:00;;;;;;;8.57;6.40;;;;;;;3.68;88.91;95506.97;1795413;80;21015;-76
2022/12/17 13:47:34;;;;;;;10.47;7.53;;;;;;;3.64;88.99;95518.23;1795439;80;21057;-76
2022/12/17 13:50:05;;;;;;;10.58;7.37;;;;;;;3.63;89.01;95529.55;1795960;80;21030;-76
2022/12/17 13:52:33;;;;;;;7.40;5.60;;;;;;;3.62;89.19;95545.18;1793589;80;21541;-77
2022/12/17 13:55:10;;;;;;;11.20;4.93;;;;;;;3.61;89.03;95545.62;1795277;80;20987;-77
2022/12/17 13:57:37;;;;;;;7.83;5.33;;;;;;;3.61;89.03;95555.19;1795028;80;20991;-77
2022/12/17 14:00:06;;;;;;;6.20;4.40;;;;;;;3.61;88.95;95571.70;1755247;80;21007;-77
2022/12/17 14:02:40;;;;;;;7.83;5.40;;;;;;;3.56;88.82;95589.06;1786011;80;20988;-76
2022/12/17 14:05:30;;;;;;;6.93;5.10;;;;;;;3.56;88.91;95594.72;1787148;80;21026;-77
2022/12/17 14:08:00;;;;;;;5.03;4.03;;;;;;;3.55;88.85;95600.34;1787091;80;21027;-77
2022/12/17 14:10:28;;;;;;;7.53;5.10;;;;;;;3.54;88.71;95603.82;1787100;80;21480;-75
2022/12/17 14:13:09;;;;;;;7.47;5.03;;;;;;;3.56;88.66;95622.11;1787046;80;20975;-75
2022/12/17 14:15:36;;;;;;;8.37;5.80;;;;;;;3.55;88.68;95623.81;1787098;80;20987;-75
2022/12/17 14:18:04;;;;;;;7.53;5.50;;;;;;;3.46;88.74;95634.19;1786778;80;21046;-75
2022/12/17 14:20:34;;;;;;;9.43;5.70;;;;;;;3.34;88.88;95631.02;1787058;80;20987;-75
2022/12/17 14:23:06;;;;;;;8.10;5.80;;;;;;;3.29;89.18;95639.67;1787136;80;21015;-75
2022/12/17 14:25:38;;;;;;;10.67;6.87;;;;;;;3.20;89.04;95632.20;1785814;80;21007;-75
2022/12/17 14:28:32;;;;;;;12.70;7.10;;;;;;;3.12;89.42;95635.56;1787006;80;21003;-75
2022/12/17 14:31:07;;;;;;;;;;;;;;;3.06;89.79;95638.98;1789667;80;21022;-77
2022/12/17 14:33:36;;;;;;;10.10;5.93;;;;;;;3.00;89.66;95636.33;1787154;80;20104;-77
2022/12/17 14:36:22;;;;;;;13.17;8.27;;;;;;;2.92;89.87;95650.55;1787038;80;21026;-77
2022/12/17 14:38:58;;;;;;;15.97;8.33;;;;;;;2.85;90.36;95642.23;1786760;80;20967;-77
2022/12/17 14:44:23;;;;;;;17.00;9.30;;;;;;;2.82;90.47;95644.78;1787205;80;21476;-77
2022/12/17 14:46:54;;;;;;;20.63;12.00;;;;;;;2.75;90.76;95663.83;1786847;80;21469;-77
2022/12/17 14:49:21;;;;;;;18.73;10.87;;;;;;;2.74;90.78;95667.27;1783718;80;21023;-77
2022/12/17 14:51:49;;;;;;;16.00;9.73;;;;;;;2.69;90.90;95671.55;1787194;80;21030;-77
2022/12/17 14:54:27;;;;;;;15.80;8.43;;;;;;;2.63;90.72;95677.56;1786693;80;21050;-77
2022/12/17 14:56:56;;;;;;;16.07;10.07;;;;;;;2.57;91.30;95679.66;1787068;80;21004;-77
2022/12/17 14:59:38;;;;;;;23.27;13.87;;;;;;;2.55;91.24;95683.10;1791218;80;21015;-77
2022/12/17 15:02:26;;;;;;;17.73;10.57;;;;;;;2.48;91.51;95685.17;1792918;80;21062;-77
2022/12/17 15:04:57;;;;;;;16.37;9.57;;;;;;;2.45;91.77;95682.53;1795365;80;21010;-77
2022/12/17 15:07:27;;;;;;;18.13;9.77;;;;;;;2.38;91.90;95698.05;1795194;80;21014;-77
2022/12/17 15:09:55;;;;;;;15.33;9.10;;;;;;;2.36;91.83;95693.23;1764260;80;20979;-77
2022/12/17 15:12:24;;;;;;;17.90;9.87;;;;;;;2.35;91.88;95701.05;1795346;80;20967;-77
2022/12/17 15:14:51;;;;;;;16.23;8.97;;;;;;;2.35;91.70;95707.12;1795311;80;21002;-77
2022/12/17 15:17:17;;;;;;;18.00;10.77;;;;;;;2.31;91.85;95713.55;1795411;80;21048;-77
2022/12/17 15:19:44;;;;;;;17.80;9.43;;;;;;;2.28;91.91;95727.84;1795360;80;20955;-77
2022/12/17 15:22:16;;;;;;;17.13;9.07;;;;;;;2.26;92.05;95736.05;1795230;80;20983;-77
2022/12/17 15:24:44;;;;;;;16.77;10.07;;;;;;;2.20;92.18;95734.23;1795145;80;20995;-77
2022/12/17 15:27:13;;;;;;;21.47;10.70;;;;;;;2.15;92.22;95740.66;1794892;80;21065;-77
2022/12/17 15:29:40;;;;;;;23.97;11.07;;;;;;;2.10;92.40;95749.25;1795486;80;20986;-77
2022/12/17 15:32:21;;;;;;;21.20;11.43;;;;;;;2.08;92.48;95760.05;1795291;80;21038;-77
2022/12/17 15:34:49;;;;;;;18.83;10.20;;;;;;;2.07;92.40;95759.19;1795485;80;21444;-77
2022/12/17 15:37:17;;;;;;;17.33;8.63;;;;;;;2.02;92.43;95766.04;1795340;80;21048;-77
2022/12/17 15:39:44;;;;;;;16.57;9.20;;;;;;;1.96;92.78;95771.13;1795210;80;20974;-77
2022/12/17 15:44:56;;;;;;;21.03;9.93;;;;;;;1.89;92.75;95771.86;1795576;80;21017;-77
2022/12/17 15:47:23;;;;;;;15.13;8.43;;;;;;;1.86;92.68;95783.52;1795326;80;20971;-77
2022/12/17 15:49:50;;;;;;;16.33;9.03;;;;;;;1.78;92.72;95784.69;1795398;80;20966;-77
2022/12/17 15:52:16;;;;;;;17.77;9.40;;;;;;;1.79;92.76;95781.65;1795455;80;21505;-77
2022/12/17 15:54:44;;;;;;;17.13;8.47;;;;;;;1.80;92.65;95784.29;1795361;80;21014;-77
2022/12/17 15:57:11;;;;;;;16.40;8.23;;;;;;;1.76;92.70;95790.27;1795128;80;21149;-77
2022/12/17 15:59:38;;;;;;;19.73;9.37;;;;;;;1.73;92.80;95799.33;1795441;80;21006;-77
2022/12/17 16:02:05;;;;;;;20.27;10.43;;;;;;;1.69;92.82;95785.41;1795550;80;21050;-77
2022/12/17 16:04:32;;;;;;;16.77;9.47;;;;;;;1.67;92.78;95793.59;1795456;80;21444;-77
2022/12/17 16:06:59;;;;;;;21.43;11.20;;;;;;;1.66;92.92;95793.16;1795494;80;21054;-77
2022/12/17 16:09:26;;;;;;;15.57;9.40;;;;;;;1.68;92.77;95798.38;1795513;80;20967;-77
2022/12/17 16:11:53;;;;;;;17.10;9.87;;;;;;;1.68;92.52;95808.34;1795559;80;21046;-77
2022/12/17 16:14:22;;;;;;;15.97;9.00;;;;;;;1.65;92.75;95809.59;1795582;80;21009;-77
2022/12/17 16:16:49;;;;;;;19.27;10.20;;;;;;;1.66;92.56;95812.66;1795351;80;21067;-77
2022/12/17 16:19:17;;;;;;;18.77;9.57;;;;;;;1.70;92.42;95820.09;1795494;80;20998;-77
2022/12/17 16:21:43;;;;;;;15.97;9.37;;;;;;;1.72;92.32;95823.17;1795443;80;20975;-77
2022/12/17 16:24:10;;;;;;;14.70;8.63;;;;;;;1.68;92.16;95829.58;1795294;80;21006;-77
2022/12/17 16:26:37;;;;;;;19.53;10.30;;;;;;;1.64;92.21;95828.66;1795454;80;20995;-77
2022/12/17 16:29:05;;;;;;;16.77;9.13;;;;;;;1.64;92.11;95841.66;1795577;80;21021;-77
2022/12/17 16:31:32;;;;;;;20.10;9.90;;;;;;;1.59;92.08;95845.90;1795234;80;21074;-77
2022/12/17 16:33:59;;;;;;;16.47;8.50;;;;;;;1.60;92.04;95844.17;1795476;80;20979;-77
2022/12/17 16:36:26;;;;;;;18.27;9.77;;;;;;;1.51;92.14;95850.95;1795533;80;21511;-77
2022/12/17 16:38:53;;;;;;;16.67;10.00;;;;;;;1.53;92.18;95866.56;1795473;80;20974;-77
2022/12/17 16:41:21;;;;;;;19.20;9.93;;;;;;;1.52;92.11;95871.32;1795405;80;21528;-77
2022/12/17 16:43:48;;;;;;;20.00;9.83;;;;;;;1.51;92.19;95873.05;1795591;80;21010;-77
2022/12/17 16:46:29;;;;;;;25.87;14.83;;;;;;;1.48;92.18;95875.56;1795419;80;21508;-77
2022/12/17 16:48:59;;;;;;;22.53;11.40;;;;;;;1.46;92.09;95881.58;1795799;80;21002;-77
2022/12/17 16:51:27;;;;;;;19.47;10.80;;;;;;;1.45;92.06;95874.63;1764446;80;21042;-77
2022/12/17 16:53:54;;;;;;;19.30;10.60;;;;;;;1.44;92.04;95881.56;1795980;80;20955;-77
2022/12/17 16:56:26;;;;;;;19.60;9.67;;;;;;;1.40;92.12;95878.86;1795262;80;21005;-77
2022/12/17 16:58:54;;;;;;;19.37;9.80;;;;;;;1.37;92.01;95879.67;1794555;80;20979;-77
2022/12/17 17:01:26;;;;;;;23.93;10.03;;;;;;;1.37;91.97;95879.67;1787131;80;20991;-77
2022/12/17 17:03:52;;;;;;;22.73;10.80;;;;;;;1.35;92.14;95875.28;1787265;80;20951;-77
2022/12/17 17:06:19;;;;;;;17.83;9.30;;;;;;;1.37;92.07;95878.80;1787020;80;21524;-77
2022/12/17 17:08:47;;;;;;;19.97;9.33;;;;;;;1.32;91.93;95885.20;1787053;80;21034;-77
2022/12/17 17:11:21;;;;;;;19.53;10.17;;;;;;;1.32;92.00;95885.63;1787060;80;21465;-77
2022/12/17 17:13:51;;;;;;;21.30;9.90;;;;;;;1.28;92.17;95888.14;1786017;80;21027;-77
2022/12/17 17:16:22;;;;;;;21.90;10.90;;;;;;;1.29;92.14;95886.02;1786830;80;20991;-77
2022/12/17 17:18:50;;;;;;;19.63;10.43;;;;;;;1.31;92.25;95888.66;1787195;80;21524;-77
2022/12/17 17:21:35;;;;;;;16.00;8.33;;;;;;;1.32;92.26;95897.33;1786998;80;20998;-77
2022/12/17 17:24:10;;;;;;;22.53;11.63;;;;;;;1.33;92.15;95898.64;1787100;80;20971;-77
2022/12/17 17:26:37;;;;;;;18.03;9.13;;;;;;;1.32;91.94;95902.52;1786987;80;21022;-77
2022/12/17 17:29:05;;;;;;;18.20;9.57;;;;;;;1.28;92.02;95901.13;1787164;80;21086;-77
2022/12/17 17:31:35;;;;;;;18.37;9.80;;;;;;;1.29;91.71;95905.51;1787090;80;20983;-77
2022/12/17 17:34:09;;;;;;;19.67;10.00;;;;;;;1.30;91.72;95910.28;1786930;80;21007;-77
2022/12/17 17:36:35;;;;;;;;;;;;;;;1.36;92.01;95919.92;1788981;80;21029;-77
2022/12/17 17:39:02;;;;;;;20.00;10.40;;;;;;;1.40;91.73;95914.83;1756164;81;20130;-77
2022/12/17 17:41:32;;;;;;;19.57;9.73;;;;;;;1.43;91.62;95929.63;1786999;80;20995;-77
2022/12/17 17:44:04;;;;;;;17.57;9.17;;;;;;;1.44;91.10;95927.50;1787188;80;21504;-77
2022/12/17 17:46:32;;;;;;;17.67;10.70;;;;;;;1.42;90.81;95933.08;1785868;80;20986;-77
2022/12/17 17:49:00;;;;;;;15.67;9.03;;;;;;;1.42;90.67;95933.95;1786909;80;21081;-77
2022/12/17 17:51:34;;;;;;;20.40;10.80;;;;;;;1.41;90.45;95944.30;1787101;80;20987;-77
2022/12/17 17:54:02;;;;;;;19.17;10.33;;;;;;;1.39;90.61;95946.02;1754544;80;21511;-77
2022/12/17 17:56:32;;;;;;;19.80;11.17;;;;;;;1.38;90.25;95946.84;1786832;80;21436;-77
2022/12/17 17:59:06;;;;;;;23.13;11.73;;;;;;;1.35;90.20;95949.38;1787101;80;21045;-77
2022/12/17 18:01:35;;;;;;;;;;;;;;;1.30;90.26;95968.34;1795225;80;21005;-77
2022/12/17 18:04:03;;;;;;;23.00;11.37;;;;;;;1.25;90.24;95966.48;1792606;80;20414;-77
2022/12/17 18:06:31;;;;;;;20.10;11.17;;;;;;;1.25;90.15;95965.19;1792594;80;21045;-77
2022/12/17 18:08:59;;;;;;;22.87;12.50;;;;;;;1.23;90.22;95962.53;1792470;80;21001;-77
2022/12/17 18:11:29;;;;;;;24.87;11.00;;;;;;;1.24;90.31;95977.73;1792482;80;20977;-77
2022/12/17 18:13:57;;;;;;;23.93;11.43;;;;;;;1.16;90.00;95985.36;1792716;80;21001;-77
2022/12/17 18:16:32;;;;;;;24.33;12.20;;;;;;;1.00;90.27;95983.22;1792397;80;21005;-77
2022/12/17 18:19:03;;;;;;;21.83;10.97;;;;;;;1.01;90.52;95992.78;1792757;80;21009;-75
2022/12/17 18:21:31;;;;;;;24.87;12.00;;;;;;;0.99;90.83;95987.97;1792075;80;21505;-75
2022/12/17 18:24:03;;;;;;;20.87;10.53;;;;;;;1.00;90.71;95997.50;1792505;80;21028;-75
2022/12/17 18:26:36;;;;;;;19.13;9.70;;;;;;;0.99;90.61;96010.05;1792070;80;21467;-77
2022/12/17 18:29:06;;;;;;;24.35;12.88;;;;;;;0.98;90.51;96006.58;1792854;80;21009;-77
2022/12/17 18:31:33;;;;;;;21.50;10.63;;;;;;;0.99;90.36;96010.05;1792134;80;21100;-77
2022/12/17 18:34:02;;;;;;;21.90;11.80;;;;;;;0.98;90.18;96015.67;1792791;80;21518;-77
2022/12/17 18:36:39;;;;;;;22.93;11.47;;;;;;;0.92;90.19;96028.92;1792526;80;21478;-77
2022/12/17 18:39:12;;;;;;;23.30;11.80;;;;;;;0.92;89.84;96045.37;1792645;80;20985;-77
2022/12/17 18:44:26;;;;;;;24.03;12.13;;;;;;;0.93;90.06;96049.72;1792677;80;21447;-77
2022/12/17 18:46:53;;;;;;;20.87;10.30;;;;;;;0.95;89.89;96058.87;1792618;80;21009;-77
2022/12/17 18:49:22;;;;;;;19.80;10.10;;;;;;;0.93;89.33;96054.92;1792582;80;21459;-77
2022/12/17 18:51:51;;;;;;;18.67;9.43;;;;;;;0.97;89.49;96072.36;1792539;80;21599;-77
2022/12/17 18:54:24;;;;;;;17.07;9.00;;;;;;;0.95;89.13;96071.43;1792584;80;21538;-77
2022/12/17 18:56:53;;;;;;;20.17;10.55;;;;;;;0.97;89.05;96072.36;1792855;80;21400;-77
2022/12/17 18:59:22;;;;;;;15.63;8.43;;;;;;;0.99;88.45;96075.88;1792593;80;20953;-77
2022/12/17 19:01:49;;;;;;;20.93;9.40;;;;;;;0.99;88.30;96074.58;1800936;80;20966;-77
2022/12/17 19:04:18;;;;;;;16.33;8.60;;;;;;;1.00;88.48;96080.66;1801259;80;21016;-77
2022/12/17 19:06:47;;;;;;;18.27;9.17;;;;;;;0.99;88.50;96082.38;1771716;80;21499;-77
2022/12/17 19:09:26;;;;;;;21.30;10.30;;;;;;;0.96;88.50;96085.30;1800952;80;21484;-77
2022/12/17 19:11:53;;;;;;;20.07;9.83;;;;;;;0.92;87.99;96093.45;1800757;80;21064;-77
2022/12/17 19:14:22;;;;;;;24.23;10.50;;;;;;;0.86;88.02;96103.27;1800939;80;20996;-77
2022/12/17 19:16:52;;;;;;;15.97;8.60;;;;;;;0.83;88.07;96105.78;1800938;80;20985;-77
2022/12/17 19:19:19;;;;;;;16.23;8.33;;;;;;;0.86;88.09;96106.28;1800768;80;21519;-77
2022/12/17 19:21:47;;;;;;;16.73;9.13;;;;;;;0.83;87.84;96110.07;1800930;80;21048;-77
2022/12/17 19:24:17;;;;;;;19.90;9.23;;;;;;;0.75;87.74;96113.77;1801076;80;20985;-77
2022/12/17 19:26:45;;;;;;;17.33;8.57;;;;;;;0.75;87.61;96119.38;1800744;80;21023;-77
2022/12/17 19:29:14;;;;;;;18.70;8.73;;;;;;;0.69;87.31;96127.89;1801058;80;20981;-77
2022/12/17 19:31:42;;;;;;;18.73;10.17;;;;;;;0.68;87.43;96127.45;1801139;80;20973;-77
2022/12/17 19:34:12;;;;;;;16.57;9.43;;;;;;;0.69;87.68;96129.19;1801143;80;20985;-77
2022/12/17 19:36:39;;;;;;;19.73;10.30;;;;;;;0.70;87.40;96131.36;1801113;80;20973;-77
2022/12/17 19:39:11;;;;;;;20.83;10.47;;;;;;;0.67;86.98;96132.58;1801094;80;21098;-77
2022/12/17 19:41:38;;;;;;;16.43;9.37;;;;;;;0.66;87.07;96125.64;1800226;80;20982;-77
2022/12/17 19:44:12;;;;;;;17.90;9.57;;;;;;;0.60;86.86;96125.02;1801139;80;21013;-77
2022/12/17 19:46:40;;;;;;;15.70;8.47;;;;;;;0.57;86.89;96130.14;1800852;80;21016;-77
2022/12/17 19:49:09;;;;;;;17.33;8.10;;;;;;;0.54;86.94;96135.25;1801088;80;21016;-77
2022/12/17 19:51:39;;;;;;;19.23;9.67;;;;;;;0.50;87.20;96137.28;1801090;80;21016;-77
2022/12/17 19:54:05;;;;;;;23.33;11.27;;;;;;;0.49;86.90;96132.94;1801006;80;21024;-77
2022/12/17 19:56:33;;;;;;;16.67;9.40;;;;;;;0.47;87.09;96134.61;1801081;80;21024;-77
2022/12/17 19:59:05;;;;;;;19.07;9.63;;;;;;;0.42;87.29;96126.26;1801066;80;21518;-77
2022/12/17 20:01:35;;;;;;;19.70;10.17;;;;;;;0.43;87.29;96133.66;1789462;80;21016;-77
2022/12/17 20:04:02;;;;;;;20.17;11.07;;;;;;;0.38;87.29;96136.53;1786163;80;21062;-77
2022/12/17 20:06:31;;;;;;;23.07;11.57;;;;;;;0.37;87.55;96142.12;1787264;80;20949;-77
2022/12/17 20:08:59;;;;;;;20.60;11.13;;;;;;;0.33;87.83;96145.91;1787031;80;21050;-77
2022/12/17 20:11:32;;;;;;;21.00;10.03;;;;;;;0.30;87.96;96145.79;1752972;80;20977;-77
2022/12/17 20:14:11;;;;;;;;;;;;;;;0.31;88.02;96154.05;1789570;80;21029;-77
2022/12/17 20:16:49;;;;;;;24.30;12.43;;;;;;;0.32;88.14;96163.59;1756205;82;20142;-77
2022/12/17 20:19:23;;;;;;;25.57;12.80;;;;;;;0.33;88.31;96166.25;1785507;80;21043;-77
2022/12/17 20:21:50;;;;;;;23.90;13.83;;;;;;;0.34;88.15;96174.91;1754448;80;21507;-77
2022/12/17 20:24:17;;;;;;;31.10;15.03;;;;;;;0.32;88.04;96176.14;1787079;80;21034;-77
2022/12/17 20:26:47;;;;;;;27.97;13.77;;;;;;;0.36;88.32;96183.63;1786970;80;21085;-77
2022/12/17 20:29:14;;;;;;;22.90;11.20;;;;;;;0.43;88.44;96176.48;1787066;80;20975;-77
2022/12/17 20:31:41;;;;;;;21.80;12.30;;;;;;;0.40;87.86;96179.88;1787200;80;21026;-77
2022/12/17 20:34:11;;;;;;;23.77;12.20;;;;;;;0.38;87.73;96184.13;1787081;80;20983;-77
2022/12/17 20:36:39;;;;;;;22.07;11.13;;;;;;;0.41;87.77;96189.41;1787056;80;20998;-76
2022/12/17 20:39:07;;;;;;;23.23;12.23;;;;;;;0.36;87.42;96196.60;1787222;80;20995;-76
2022/12/17 20:41:35;;;;;;;21.53;12.27;;;;;;;0.30;87.37;96207.66;1786998;80;21014;-76
2022/12/17 20:44:10;;;;;;;20.73;11.33;;;;;;;0.27;87.35;96204.97;1786883;80;21031;-77
2022/12/17 20:46:37;;;;;;;24.80;12.20;;;;;;;0.20;87.26;96214.30;1787255;80;21046;-77
2022/12/17 20:49:05;;;;;;;26.47;13.20;;;;;;;0.15;87.40;96213.67;1787140;80;21489;-77
2022/12/17 20:51:33;;;;;;;18.30;9.77;;;;;;;0.12;87.60;96222.66;1787150;80;21454;-77
2022/12/17 20:54:02;;;;;;;25.63;12.77;;;;;;;0.15;87.66;96223.66;1787134;80;21015;-77
2022/12/17 20:56:32;;;;;;;22.47;12.10;;;;;;;0.16;87.66;96225.83;1786995;80;21007;-77
2022/12/17 20:59:04;;;;;;;27.97;17.53;;;;;;;0.15;87.33;96227.55;1787083;80;20982;-77
2022/12/17 21:01:34;;;;;;;24.13;13.07;;;;;;;0.16;87.37;96231.89;1792840;80;20994;-77
2022/12/17 21:04:02;;;;;;;31.70;15.77;;;;;;;0.16;87.27;96240.98;1795285;80;21026;-77
2022/12/17 21:06:39;;;;;;;32.63;15.53;;;;;;;0.10;87.21;96247.28;1795540;80;20990;-77
2022/12/17 21:09:06;;;;;;;30.67;15.97;;;;;;;0.09;87.41;96245.92;1795620;80;21050;-77
2022/12/17 21:11:35;;;;;;;27.57;13.67;;;;;;;0.10;87.39;96251.56;1795366;80;20983;-77
2022/12/17 21:14:06;;;;;;;36.50;17.17;;;;;;;0.06;87.74;96258.81;1795549;80;20975;-77
2022/12/17 21:16:34;;;;;;;40.53;19.13;;;;;;;0.04;87.70;96253.55;1795097;80;21520;-77
2022/12/17 21:19:01;;;;;;;31.30;16.47;;;;;;;-0.06;88.05;96267.94;1795332;80;21472;-77
2022/12/17 21:21:31;;;;;;;33.50;16.70;;;;;;;-0.10;88.23;96272.58;1795415;80;20991;-77
2022/12/17 21:23:59;;;;;;;42.80;20.17;;;;;;;-0.12;88.50;96278.55;1795459;80;21018;-77
2022/12/17 21:26:33;;;;;;;37.10;18.23;;;;;;;-0.12;88.55;96280.72;1795103;80;21019;-77
2022/12/17 21:29:02;;;;;;;38.10;19.73;;;;;;;-0.22;89.07;96281.23;1795397;80;20995;-77
2022/12/17 21:31:33;;;;;;;44.73;21.47;;;;;;;-0.21;88.92;96280.40;1795460;80;21039;-77
2022/12/17 21:34:03;;;;;;;36.33;17.50;;;;;;;-0.24;89.17;96286.78;1795299;80;21070;-77
2022/12/17 21:36:32;;;;;;;34.87;17.30;;;;;;;-0.27;89.33;96283.67;1795407;80;21449;-77
2022/12/17 21:38:59;;;;;;;41.53;19.53;;;;;;;-0.29;89.44;96288.34;1795343;80;21488;-77
2022/12/17 21:41:31;;;;;;;40.90;20.97;;;;;;;-0.34;89.60;96291.19;1795270;80;21117;-77
2022/12/17 21:44:02;;;;;;;42.63;20.70;;;;;;;-0.34;89.65;96298.97;1795422;80;20993;-77
2022/12/17 21:46:29;;;;;;;41.07;20.70;;;;;;;-0.35;89.63;96307.17;1795241;80;20994;-77
2022/12/17 21:48:59;;;;;;;46.20;21.47;;;;;;;-0.33;89.62;96310.70;1795142;80;21014;-77
2022/12/17 21:51:27;;;;;;;44.47;20.00;;;;;;;-0.32;89.52;96310.28;1795421;80;20955;-77
2022/12/17 21:53:58;;;;;;;42.83;20.33;;;;;;;-0.34;89.36;96314.52;1765052;80;20990;-76
2022/12/17 21:56:25;;;;;;;41.27;22.00;;;;;;;-0.34;89.38;96332.26;1795284;80;21038;-77
2022/12/17 21:58:58;;;;;;;47.87;22.83;;;;;;;-0.37;89.38;96336.47;1795525;80;21026;-77
2022/12/17 22:01:30;;;;;;;48.65;21.70;;;;;;;-0.39;89.82;96349.78;1790616;80;21023;-77
2022/12/17 22:03:59;;;;;;;46.63;22.33;;;;;;;-0.37;89.46;96347.71;1787123;80;21045;-77
2022/12/17 22:06:28;;;;;;;51.63;23.83;;;;;;;-0.37;89.42;96349.43;1787084;80;21046;-77
2022/12/17 22:08:57;;;;;;;46.67;22.13;;;;;;;-0.41;89.58;96354.02;1786844;80;21046;-77
2022/12/17 22:11:25;;;;;;;44.43;20.10;;;;;;;-0.42;89.40;96360.05;1786819;80;21059;-77
2022/12/17 22:14:01;;;;;;;48.30;22.37;;;;;;;-0.45;89.39;96356.94;1787566;80;21449;-77
2022/12/17 22:16:30;;;;;;;46.97;22.50;;;;;;;-0.42;89.48;96366.53;1787087;80;20943;-76
2022/12/17 22:18:59;;;;;;;43.10;20.53;;;;;;;-0.44;89.52;96369.94;1787006;80;21014;-77
2022/12/17 22:21:25;;;;;;;53.33;22.73;;;;;;;-0.49;89.25;96370.60;1787446;80;20971;-77
2022/12/17 22:23:52;;;;;;;47.10;23.13;;;;;;;-0.49;89.31;96374.07;1787155;80;21476;-77
2022/12/17 22:26:19;;;;;;;50.13;23.00;;;;;;;-0.51;89.34;96375.72;1787129;80;21011;-76
2022/12/17 22:28:49;;;;;;;51.03;23.03;;;;;;;-0.47;89.29;96389.27;1786888;80;21018;-77
2022/12/17 22:34:06;;;;;;;46.10;21.20;;;;;;;-0.50;89.24;96387.00;1787165;80;20955;-76
2022/12/17 22:36:33;;;;;;;41.27;20.87;;;;;;;-0.49;89.16;96392.64;1786941;80;21453;-76
2022/12/17 22:39:05;;;;;;;46.67;22.27;;;;;;;-0.48;89.09;96390.11;1786762;80;21042;-76
2022/12/17 22:44:16;;;;;;;50.07;22.60;;;;;;;-0.49;88.89;96399.12;1787037;80;21011;-76
2022/12/17 22:46:43;;;;;;;48.03;22.77;;;;;;;-0.52;88.90;96397.30;1787049;80;21022;-76
2022/12/17 22:49:10;;;;;;;48.43;22.83;;;;;;;-0.52;89.01;96417.16;1786991;80;21067;-76
2022/12/17 22:51:39;;;;;;;49.30;23.07;;;;;;;-0.55;88.92;96419.22;1787017;80;21003;-76
2022/12/17 22:54:06;;;;;;;48.57;21.07;;;;;;;-0.50;89.01;96416.39;1787023;80;20960;-76
2022/12/17 22:56:35;;;;;;;42.27;19.93;;;;;;;-0.50;88.69;96428.47;1786928;80;21051;-76
2022/12/17 22:59:02;;;;;;;36.37;18.10;;;;;;;-0.52;88.86;96428.41;1786793;80;21007;-76
2022/12/17 23:01:29;;;;;;;41.77;20.40;;;;;;;-0.52;88.44;96423.22;1786915;80;21038;-76
2022/12/17 23:03:58;;;;;;;36.40;17.77;;;;;;;-0.48;88.47;96425.11;1787013;80;21469;-76
2022/12/17 23:06:26;;;;;;;39.33;17.27;;;;;;;-0.45;88.41;96426.52;1787153;80;20991;-76
2022/12/17 23:08:53;;;;;;;34.90;16.63;;;;;;;-0.43;88.17;96435.63;1787136;80;21054;-76
2022/12/17 23:11:23;;;;;;;35.47;16.83;;;;;;;-0.38;88.27;96437.97;1787315;80;20994;-76
2022/12/17 23:13:51;;;;;;;36.70;16.83;;;;;;;-0.37;87.97;96452.72;1787092;80;20971;-76
2022/12/17 23:16:19;;;;;;;30.43;14.63;;;;;;;-0.33;88.09;96445.92;1787275;80;21019;-76
2022/12/17 23:18:47;;;;;;;36.47;17.33;;;;;;;-0.32;87.60;96446.42;1787207;80;20967;-76
2022/12/17 23:21:20;;;;;;;37.80;17.93;;;;;;;-0.30;87.53;96452.55;1787170;80;21015;-76
2022/12/17 23:23:47;;;;;;;36.98;18.30;;;;;;;-0.33;86.53;96451.11;1787426;80;21029;-76
2022/12/17 23:26:22;;;;;;;31.17;14.43;;;;;;;-0.32;86.96;96452.48;1787293;80;21485;-76
2022/12/17 23:28:57;;;;;;;35.13;15.57;;;;;;;-0.31;87.26;96467.20;1787161;80;21015;-76
2022/12/17 23:31:25;;;;;;;41.60;18.57;;;;;;;-0.29;86.61;96474.63;1787118;80;21059;-76
2022/12/17 23:33:52;;;;;;;48.60;22.00;;;;;;;-0.29;86.54;96472.03;1787201;80;20986;-76
2022/12/17 23:36:22;;;;;;;42.07;18.73;;;;;;;-0.28;86.66;96479.39;1787240;80;21001;-76
2022/12/17 23:38:49;;;;;;;36.50;17.90;;;;;;;-0.28;86.64;96494.56;1787104;80;20993;-76
2022/12/17 23:41:20;;;;;;;37.07;16.93;;;;;;;-0.31;86.11;96491.84;1787197;80;20946;-76
2022/12/17 23:43:48;;;;;;;37.80;16.40;;;;;;;-0.35;86.06;96488.67;1787058;80;21060;-76
2022/12/17 23:46:16;;;;;;;41.43;18.57;;;;;;;-0.48;86.39;96495.49;1787127;80;20989;-76
2022/12/17 23:48:45;;;;;;;37.40;16.80;;;;;;;-0.45;86.02;96495.64;1787116;80;21084;-76
2022/12/17 23:51:13;;;;;;;36.37;16.20;;;;;;;-0.43;86.45;96508.22;1787195;80;21047;-76
2022/12/17 23:53:41;;;;;;;40.27;18.30;;;;;;;-0.44;85.87;96503.45;1787172;80;21479;-76
2022/12/17 23:56:16;;;;;;;35.77;16.97;;;;;;;-0.43;85.92;96504.33;1787179;80;21093;-76
2022/12/17 23:58:44;;;;;;;34.57;15.10;;;;;;;-0.41;86.28;96504.41;1787066;80;21005;-76
